sensor_id;sensor_type;location;lat;lon;timestamp;temperature;humidity
71128;SHT30;59249;59.736;30.568;2022-12-11T00:01:20;-2.38;80.09
71128;SHT30;59249;59.736;30.568;2022-12-11T00:03:49;-2.29;80.22
71128;SHT30;59249;59.736;30.568;2022-12-11T00:06:28;-2.31;80.24
71128;SHT30;59249;59.736;30.568;2022-12-11T00:08:57;-2.29;80.15
71128;SHT30;59249;59.736;30.568;2022-12-11T00:11:28;-2.35;79.97
71128;SHT30;59249;59.736;30.568;2022-12-11T00:13:57;-2.32;80.03
71128;SHT30;59249;59.736;30.568;2022-12-11T00:16:26;-2.37;79.94
71128;SHT30;59249;59.736;30.568;2022-12-11T00:18:55;-2.44;79.88
71128;SHT30;59249;59.736;30.568;2022-12-11T00:21:25;-2.39;79.97
71128;SHT30;59249;59.736;30.568;2022-12-11T00:23:54;-2.45;80.17
71128;SHT30;59249;59.736;30.568;2022-12-11T00:26:23;-2.58;80.04
71128;SHT30;59249;59.736;30.568;2022-12-11T00:28:55;-2.47;80.10
71128;SHT30;59249;59.736;30.568;2022-12-11T00:31:24;-2.43;80.00
71128;SHT30;59249;59.736;30.568;2022-12-11T00:33:54;-2.47;79.83
71128;SHT30;59249;59.736;30.568;2022-12-11T00:36:26;-2.50;79.71
71128;SHT30;59249;59.736;30.568;2022-12-11T00:38:55;-2.49;79.77
71128;SHT30;59249;59.736;30.568;2022-12-11T00:41:24;-2.41;79.78
71128;SHT30;59249;59.736;30.568;2022-12-11T00:43:53;-2.38;79.79
71128;SHT30;59249;59.736;30.568;2022-12-11T00:46:22;-2.32;79.99
71128;SHT30;59249;59.736;30.568;2022-12-11T00:48:51;-2.38;80.10
71128;SHT30;59249;59.736;30.568;2022-12-11T00:51:20;-2.38;79.72
71128;SHT30;59249;59.736;30.568;2022-12-11T00:53:51;-2.42;79.62
71128;SHT30;59249;59.736;30.568;2022-12-11T00:56:21;-2.39;79.83
71128;SHT30;59249;59.736;30.568;2022-12-11T00:58:51;-2.45;79.80
71128;SHT30;59249;59.736;30.568;2022-12-11T01:01:22;-2.45;79.88
71128;SHT30;59249;59.736;30.568;2022-12-11T01:03:52;-2.43;79.60
71128;SHT30;59249;59.736;30.568;2022-12-11T01:06:23;-2.45;79.89
71128;SHT30;59249;59.736;30.568;2022-12-11T01:08:55;-2.41;79.81
71128;SHT30;59249;59.736;30.568;2022-12-11T01:11:39;-2.43;79.76
71128;SHT30;59249;59.736;30.568;2022-12-11T01:14:12;-2.39;79.73
71128;SHT30;59249;59.736;30.568;2022-12-11T01:16:41;-2.40;79.84
71128;SHT30;59249;59.736;30.568;2022-12-11T01:19:11;-2.43;79.88
71128;SHT30;59249;59.736;30.568;2022-12-11T01:21:40;-2.41;80.14
71128;SHT30;59249;59.736;30.568;2022-12-11T01:24:10;-2.47;79.97
71128;SHT30;59249;59.736;30.568;2022-12-11T01:26:39;-2.53;79.76
71128;SHT30;59249;59.736;30.568;2022-12-11T01:29:07;-2.56;79.84
71128;SHT30;59249;59.736;30.568;2022-12-11T01:31:36;-2.38;79.87
71128;SHT30;59249;59.736;30.568;2022-12-11T01:34:06;-2.44;79.84
71128;SHT30;59249;59.736;30.568;2022-12-11T01:36:35;-2.46;79.81
71128;SHT30;59249;59.736;30.568;2022-12-11T01:39:03;-2.45;79.89
71128;SHT30;59249;59.736;30.568;2022-12-11T01:41:34;-2.44;79.77
71128;SHT30;59249;59.736;30.568;2022-12-11T01:44:06;-2.43;79.90
71128;SHT30;59249;59.736;30.568;2022-12-11T01:46:36;-2.39;79.89
71128;SHT30;59249;59.736;30.568;2022-12-11T01:49:09;-2.34;79.87
71128;SHT30;59249;59.736;30.568;2022-12-11T01:51:47;-2.36;79.63
71128;SHT30;59249;59.736;30.568;2022-12-11T01:54:20;-2.42;79.76
71128;SHT30;59249;59.736;30.568;2022-12-11T01:56:56;-2.43;79.68
71128;SHT30;59249;59.736;30.568;2022-12-11T01:59:28;-2.51;79.58
71128;SHT30;59249;59.736;30.568;2022-12-11T02:02:05;-2.48;79.60
71128;SHT30;59249;59.736;30.568;2022-12-11T02:04:38;-2.55;79.17
71128;SHT30;59249;59.736;30.568;2022-12-11T02:07:09;-2.45;79.20
71128;SHT30;59249;59.736;30.568;2022-12-11T02:09:42;-2.59;79.20
71128;SHT30;59249;59.736;30.568;2022-12-11T02:12:24;-2.60;79.17
71128;SHT30;59249;59.736;30.568;2022-12-11T02:15:05;-2.62;79.38
71128;SHT30;59249;59.736;30.568;2022-12-11T02:17:45;-2.57;79.56
71128;SHT30;59249;59.736;30.568;2022-12-11T02:20:24;-2.55;79.32
71128;SHT30;59249;59.736;30.568;2022-12-11T02:23:31;-2.45;79.51
71128;SHT30;59249;59.736;30.568;2022-12-11T02:26:17;-2.50;79.54
71128;SHT30;59249;59.736;30.568;2022-12-11T02:28:54;-2.44;79.48
71128;SHT30;59249;59.736;30.568;2022-12-11T02:31:34;-2.42;79.67
71128;SHT30;59249;59.736;30.568;2022-12-11T02:34:10;-2.36;79.83
71128;SHT30;59249;59.736;30.568;2022-12-11T02:36:45;-2.53;79.32
71128;SHT30;59249;59.736;30.568;2022-12-11T02:39:17;-2.49;79.42
71128;SHT30;59249;59.736;30.568;2022-12-11T02:41:50;-2.50;79.64
71128;SHT30;59249;59.736;30.568;2022-12-11T02:44:25;-2.56;79.66
71128;SHT30;59249;59.736;30.568;2022-12-11T02:46:55;-2.49;79.74
71128;SHT30;59249;59.736;30.568;2022-12-11T02:49:27;-2.57;79.65
71128;SHT30;59249;59.736;30.568;2022-12-11T02:52:00;-2.55;79.54
71128;SHT30;59249;59.736;30.568;2022-12-11T02:54:33;-2.53;79.59
71128;SHT30;59249;59.736;30.568;2022-12-11T02:57:08;-2.49;79.68
71128;SHT30;59249;59.736;30.568;2022-12-11T02:59:43;-2.52;79.58
71128;SHT30;59249;59.736;30.568;2022-12-11T03:02:14;-2.53;79.46
71128;SHT30;59249;59.736;30.568;2022-12-11T03:04:47;-2.69;79.71
71128;SHT30;59249;59.736;30.568;2022-12-11T03:07:21;-2.62;79.64
71128;SHT30;59249;59.736;30.568;2022-12-11T03:09:51;-2.72;79.61
71128;SHT30;59249;59.736;30.568;2022-12-11T03:12:24;-2.76;79.75
71128;SHT30;59249;59.736;30.568;2022-12-11T03:14:59;-2.82;79.85
71128;SHT30;59249;59.736;30.568;2022-12-11T03:17:39;-2.73;80.03
71128;SHT30;59249;59.736;30.568;2022-12-11T03:20:21;-2.70;79.95
71128;SHT30;59249;59.736;30.568;2022-12-11T03:23:01;-2.70;79.77
71128;SHT30;59249;59.736;30.568;2022-12-11T03:25:41;-2.71;79.93
71128;SHT30;59249;59.736;30.568;2022-12-11T03:28:17;-2.69;79.88
71128;SHT30;59249;59.736;30.568;2022-12-11T03:30:52;-2.79;79.89
71128;SHT30;59249;59.736;30.568;2022-12-11T03:33:27;-2.85;79.96
71128;SHT30;59249;59.736;30.568;2022-12-11T03:36:03;-2.79;79.81
71128;SHT30;59249;59.736;30.568;2022-12-11T03:38:38;-2.83;79.75
71128;SHT30;59249;59.736;30.568;2022-12-11T03:41:10;-2.83;79.87
71128;SHT30;59249;59.736;30.568;2022-12-11T03:43:41;-2.87;79.95
71128;SHT30;59249;59.736;30.568;2022-12-11T03:46:14;-2.94;80.20
71128;SHT30;59249;59.736;30.568;2022-12-11T03:48:45;-2.97;80.04
71128;SHT30;59249;59.736;30.568;2022-12-11T03:51:16;-2.94;80.19
71128;SHT30;59249;59.736;30.568;2022-12-11T03:53:47;-2.98;80.23
71128;SHT30;59249;59.736;30.568;2022-12-11T03:56:18;-3.02;80.16
71128;SHT30;59249;59.736;30.568;2022-12-11T03:58:48;-3.11;80.19
71128;SHT30;59249;59.736;30.568;2022-12-11T04:01:18;-3.18;80.23
71128;SHT30;59249;59.736;30.568;2022-12-11T04:03:47;-3.30;80.31
71128;SHT30;59249;59.736;30.568;2022-12-11T04:06:16;-3.42;80.52
71128;SHT30;59249;59.736;30.568;2022-12-11T04:08:45;-3.54;80.56
71128;SHT30;59249;59.736;30.568;2022-12-11T04:11:14;-3.58;80.62
71128;SHT30;59249;59.736;30.568;2022-12-11T04:14:00;-3.67;80.76
71128;SHT30;59249;59.736;30.568;2022-12-11T04:16:48;-3.76;80.90
71128;SHT30;59249;59.736;30.568;2022-12-11T04:19:17;-3.84;80.96
71128;SHT30;59249;59.736;30.568;2022-12-11T04:22:04;-3.92;81.26
71128;SHT30;59249;59.736;30.568;2022-12-11T04:24:52;-3.95;81.23
71128;SHT30;59249;59.736;30.568;2022-12-11T04:27:22;-4.02;81.50
71128;SHT30;59249;59.736;30.568;2022-12-11T04:30:14;-4.04;81.44
71128;SHT30;59249;59.736;30.568;2022-12-11T04:32:46;-4.07;81.49
71128;SHT30;59249;59.736;30.568;2022-12-11T04:35:16;-4.13;81.43
71128;SHT30;59249;59.736;30.568;2022-12-11T04:37:45;-4.18;81.50
71128;SHT30;59249;59.736;30.568;2022-12-11T04:40:17;-4.27;81.75
71128;SHT30;59249;59.736;30.568;2022-12-11T04:42:46;-4.35;82.03
71128;SHT30;59249;59.736;30.568;2022-12-11T04:45:15;-4.37;82.00
71128;SHT30;59249;59.736;30.568;2022-12-11T04:47:45;-4.40;82.00
71128;SHT30;59249;59.736;30.568;2022-12-11T04:50:18;-4.46;81.81
71128;SHT30;59249;59.736;30.568;2022-12-11T04:52:46;-4.47;81.95
71128;SHT30;59249;59.736;30.568;2022-12-11T04:55:16;-4.56;82.22
71128;SHT30;59249;59.736;30.568;2022-12-11T04:57:45;-4.56;82.31
71128;SHT30;59249;59.736;30.568;2022-12-11T05:00:16;-4.65;82.20
71128;SHT30;59249;59.736;30.568;2022-12-11T05:02:48;-4.69;82.49
71128;SHT30;59249;59.736;30.568;2022-12-11T05:05:19;-4.71;82.57
71128;SHT30;59249;59.736;30.568;2022-12-11T05:07:48;-4.74;82.70
71128;SHT30;59249;59.736;30.568;2022-12-11T05:10:17;-4.80;82.73
71128;SHT30;59249;59.736;30.568;2022-12-11T05:12:46;-4.81;82.97
71128;SHT30;59249;59.736;30.568;2022-12-11T05:15:14;-4.81;83.11
71128;SHT30;59249;59.736;30.568;2022-12-11T05:17:43;-4.85;83.14
71128;SHT30;59249;59.736;30.568;2022-12-11T05:20:13;-4.89;83.19
71128;SHT30;59249;59.736;30.568;2022-12-11T05:22:43;-4.92;83.43
71128;SHT30;59249;59.736;30.568;2022-12-11T05:25:12;-4.91;83.43
71128;SHT30;59249;59.736;30.568;2022-12-11T05:27:41;-4.89;83.42
71128;SHT30;59249;59.736;30.568;2022-12-11T05:30:10;-4.85;83.34
71128;SHT30;59249;59.736;30.568;2022-12-11T05:32:39;-4.93;83.39
71128;SHT30;59249;59.736;30.568;2022-12-11T05:35:08;-4.93;83.45
71128;SHT30;59249;59.736;30.568;2022-12-11T05:37:39;-4.91;83.46
71128;SHT30;59249;59.736;30.568;2022-12-11T05:40:10;-4.89;83.36
71128;SHT30;59249;59.736;30.568;2022-12-11T05:42:40;-4.88;83.27
71128;SHT30;59249;59.736;30.568;2022-12-11T05:45:10;-4.85;83.23
71128;SHT30;59249;59.736;30.568;2022-12-11T05:47:39;-4.88;83.22
71128;SHT30;59249;59.736;30.568;2022-12-11T05:50:10;-4.82;83.21
71128;SHT30;59249;59.736;30.568;2022-12-11T05:52:41;-4.85;83.38
71128;SHT30;59249;59.736;30.568;2022-12-11T05:55:10;-4.78;83.24
71128;SHT30;59249;59.736;30.568;2022-12-11T05:57:39;-4.77;83.43
71128;SHT30;59249;59.736;30.568;2022-12-11T06:00:11;-4.76;83.39
71128;SHT30;59249;59.736;30.568;2022-12-11T06:02:40;-4.80;83.35
71128;SHT30;59249;59.736;30.568;2022-12-11T06:05:09;-4.79;83.25
71128;SHT30;59249;59.736;30.568;2022-12-11T06:07:39;-4.84;83.12
71128;SHT30;59249;59.736;30.568;2022-12-11T06:10:09;-4.85;83.23
71128;SHT30;59249;59.736;30.568;2022-12-11T06:12:38;-4.86;83.36
71128;SHT30;59249;59.736;30.568;2022-12-11T06:15:11;-4.88;83.26
71128;SHT30;59249;59.736;30.568;2022-12-11T06:17:40;-4.86;83.29
71128;SHT30;59249;59.736;30.568;2022-12-11T06:20:10;-4.91;83.38
71128;SHT30;59249;59.736;30.568;2022-12-11T06:22:40;-4.85;83.41
71128;SHT30;59249;59.736;30.568;2022-12-11T06:25:09;-4.88;83.51
71128;SHT30;59249;59.736;30.568;2022-12-11T06:27:38;-4.91;83.57
71128;SHT30;59249;59.736;30.568;2022-12-11T06:30:09;-4.88;83.50
71128;SHT30;59249;59.736;30.568;2022-12-11T06:32:38;-4.82;83.37
71128;SHT30;59249;59.736;30.568;2022-12-11T06:35:09;-4.83;83.42
71128;SHT30;59249;59.736;30.568;2022-12-11T06:37:40;-4.84;83.32
71128;SHT30;59249;59.736;30.568;2022-12-11T06:40:10;-4.82;83.43
71128;SHT30;59249;59.736;30.568;2022-12-11T06:42:39;-4.82;83.20
71128;SHT30;59249;59.736;30.568;2022-12-11T06:45:09;-4.88;83.14
71128;SHT30;59249;59.736;30.568;2022-12-11T06:47:38;-4.86;83.20
71128;SHT30;59249;59.736;30.568;2022-12-11T06:50:08;-4.89;83.29
71128;SHT30;59249;59.736;30.568;2022-12-11T06:52:37;-4.91;83.31
71128;SHT30;59249;59.736;30.568;2022-12-11T06:55:08;-4.86;83.25
71128;SHT30;59249;59.736;30.568;2022-12-11T06:57:39;-4.87;83.14
71128;SHT30;59249;59.736;30.568;2022-12-11T07:00:09;-4.85;83.21
71128;SHT30;59249;59.736;30.568;2022-12-11T07:02:39;-4.88;83.21
71128;SHT30;59249;59.736;30.568;2022-12-11T07:05:08;-4.93;83.30
71128;SHT30;59249;59.736;30.568;2022-12-11T07:07:40;-4.87;83.29
71128;SHT30;59249;59.736;30.568;2022-12-11T07:10:11;-4.88;83.38
71128;SHT30;59249;59.736;30.568;2022-12-11T07:12:39;-4.83;83.28
71128;SHT30;59249;59.736;30.568;2022-12-11T07:15:10;-4.85;83.17
71128;SHT30;59249;59.736;30.568;2022-12-11T07:17:39;-4.89;83.16
71128;SHT30;59249;59.736;30.568;2022-12-11T07:20:09;-4.88;83.17
71128;SHT30;59249;59.736;30.568;2022-12-11T07:22:38;-4.87;83.18
71128;SHT30;59249;59.736;30.568;2022-12-11T07:25:14;-4.84;82.98
71128;SHT30;59249;59.736;30.568;2022-12-11T07:27:43;-4.82;83.03
71128;SHT30;59249;59.736;30.568;2022-12-11T07:30:13;-4.91;83.00
71128;SHT30;59249;59.736;30.568;2022-12-11T07:32:41;-4.85;82.98
71128;SHT30;59249;59.736;30.568;2022-12-11T07:35:10;-4.83;83.00
71128;SHT30;59249;59.736;30.568;2022-12-11T07:37:40;-4.86;82.92
71128;SHT30;59249;59.736;30.568;2022-12-11T07:40:10;-4.85;83.00
71128;SHT30;59249;59.736;30.568;2022-12-11T07:42:41;-4.75;83.05
71128;SHT30;59249;59.736;30.568;2022-12-11T07:45:13;-4.71;82.83
71128;SHT30;59249;59.736;30.568;2022-12-11T07:47:41;-4.69;82.69
71128;SHT30;59249;59.736;30.568;2022-12-11T07:50:10;-4.67;82.59
71128;SHT30;59249;59.736;30.568;2022-12-11T07:52:39;-4.76;82.52
71128;SHT30;59249;59.736;30.568;2022-12-11T07:55:08;-4.73;82.66
71128;SHT30;59249;59.736;30.568;2022-12-11T07:57:38;-4.76;82.60
71128;SHT30;59249;59.736;30.568;2022-12-11T08:00:10;-4.74;82.55
71128;SHT30;59249;59.736;30.568;2022-12-11T08:02:39;-4.76;82.44
71128;SHT30;59249;59.736;30.568;2022-12-11T08:05:09;-4.67;82.53
71128;SHT30;59249;59.736;30.568;2022-12-11T08:07:41;-4.74;82.52
71128;SHT30;59249;59.736;30.568;2022-12-11T08:10:10;-4.71;82.53
71128;SHT30;59249;59.736;30.568;2022-12-11T08:12:40;-4.69;82.49
71128;SHT30;59249;59.736;30.568;2022-12-11T08:15:10;-4.70;82.49
71128;SHT30;59249;59.736;30.568;2022-12-11T08:17:40;-4.68;82.43
71128;SHT30;59249;59.736;30.568;2022-12-11T08:20:09;-4.60;82.56
71128;SHT30;59249;59.736;30.568;2022-12-11T08:22:38;-4.59;82.41
71128;SHT30;59249;59.736;30.568;2022-12-11T08:25:07;-4.56;82.43
71128;SHT30;59249;59.736;30.568;2022-12-11T08:27:37;-4.48;82.47
71128;SHT30;59249;59.736;30.568;2022-12-11T08:30:10;-4.42;82.27
71128;SHT30;59249;59.736;30.568;2022-12-11T08:32:39;-4.41;82.13
71128;SHT30;59249;59.736;30.568;2022-12-11T08:35:09;-4.44;82.24
71128;SHT30;59249;59.736;30.568;2022-12-11T08:37:38;-4.38;82.38
71128;SHT30;59249;59.736;30.568;2022-12-11T08:40:09;-4.35;82.05
71128;SHT30;59249;59.736;30.568;2022-12-11T08:42:39;-4.29;82.17
71128;SHT30;59249;59.736;30.568;2022-12-11T08:45:10;-4.23;81.99
71128;SHT30;59249;59.736;30.568;2022-12-11T08:47:40;-4.21;81.77
71128;SHT30;59249;59.736;30.568;2022-12-11T08:50:09;-4.19;81.81
71128;SHT30;59249;59.736;30.568;2022-12-11T08:52:38;-4.18;81.71
71128;SHT30;59249;59.736;30.568;2022-12-11T08:55:07;-4.18;81.57
71128;SHT30;59249;59.736;30.568;2022-12-11T08:57:39;-4.10;81.70
71128;SHT30;59249;59.736;30.568;2022-12-11T09:00:12;-4.09;81.56
71128;SHT30;59249;59.736;30.568;2022-12-11T09:02:42;-3.97;81.56
71128;SHT30;59249;59.736;30.568;2022-12-11T09:05:11;-3.98;81.41
71128;SHT30;59249;59.736;30.568;2022-12-11T09:07:40;-4.11;81.06
71128;SHT30;59249;59.736;30.568;2022-12-11T09:10:09;-4.01;81.36
71128;SHT30;59249;59.736;30.568;2022-12-11T09:12:38;-3.93;81.19
71128;SHT30;59249;59.736;30.568;2022-12-11T09:15:08;-3.90;81.02
71128;SHT30;59249;59.736;30.568;2022-12-11T09:17:38;-3.91;80.71
71128;SHT30;59249;59.736;30.568;2022-12-11T09:20:08;-3.97;80.62
71128;SHT30;59249;59.736;30.568;2022-12-11T09:22:37;-3.98;80.61
71128;SHT30;59249;59.736;30.568;2022-12-11T09:25:07;-4.05;80.59
71128;SHT30;59249;59.736;30.568;2022-12-11T09:27:36;-4.02;80.68
71128;SHT30;59249;59.736;30.568;2022-12-11T09:30:07;-4.00;80.59
71128;SHT30;59249;59.736;30.568;2022-12-11T09:32:37;-3.98;80.57
71128;SHT30;59249;59.736;30.568;2022-12-11T09:35:08;-4.08;80.50
71128;SHT30;59249;59.736;30.568;2022-12-11T09:37:38;-4.06;80.42
71128;SHT30;59249;59.736;30.568;2022-12-11T09:40:09;-4.06;80.45
71128;SHT30;59249;59.736;30.568;2022-12-11T09:42:52;-4.04;80.68
71128;SHT30;59249;59.736;30.568;2022-12-11T09:45:25;-4.00;80.75
71128;SHT30;59249;59.736;30.568;2022-12-11T09:47:55;-3.95;80.64
71128;SHT30;59249;59.736;30.568;2022-12-11T09:50:27;-3.92;80.51
71128;SHT30;59249;59.736;30.568;2022-12-11T09:53:05;-3.90;80.51
71128;SHT30;59249;59.736;30.568;2022-12-11T09:55:48;-3.83;80.90
71128;SHT30;59249;59.736;30.568;2022-12-11T09:58:30;-3.73;80.51
71128;SHT30;59249;59.736;30.568;2022-12-11T10:01:06;-3.82;80.05
71128;SHT30;59249;59.736;30.568;2022-12-11T10:04:13;-3.93;80.00
71128;SHT30;59249;59.736;30.568;2022-12-11T10:07:00;-3.94;80.24
71128;SHT30;59249;59.736;30.568;2022-12-11T10:09:42;-3.93;80.37
71128;SHT30;59249;59.736;30.568;2022-12-11T10:12:30;-3.52;81.04
71128;SHT30;59249;59.736;30.568;2022-12-11T10:15:36;-3.58;79.55
71128;SHT30;59249;59.736;30.568;2022-12-11T10:18:13;-3.65;79.15
71128;SHT30;59249;59.736;30.568;2022-12-11T10:20:46;-3.57;79.92
71128;SHT30;59249;59.736;30.568;2022-12-11T10:23:23;-3.56;79.62
71128;SHT30;59249;59.736;30.568;2022-12-11T10:26:03;-3.62;79.37
71128;SHT30;59249;59.736;30.568;2022-12-11T10:28:35;-3.57;79.79
71128;SHT30;59249;59.736;30.568;2022-12-11T10:31:15;-3.63;79.65
71128;SHT30;59249;59.736;30.568;2022-12-11T10:34:11;-3.78;79.14
71128;SHT30;59249;59.736;30.568;2022-12-11T10:36:42;-3.87;79.46
71128;SHT30;59249;59.736;30.568;2022-12-11T10:39:14;-3.88;80.17
71128;SHT30;59249;59.736;30.568;2022-12-11T10:41:49;-3.93;80.24
71128;SHT30;59249;59.736;30.568;2022-12-11T10:44:20;-3.96;80.40
71128;SHT30;59249;59.736;30.568;2022-12-11T10:47:03;-4.02;80.30
71128;SHT30;59249;59.736;30.568;2022-12-11T10:49:35;-4.02;80.16
71128;SHT30;59249;59.736;30.568;2022-12-11T10:52:21;-4.07;80.40
71128;SHT30;59249;59.736;30.568;2022-12-11T10:54:59;-4.01;80.37
71128;SHT30;59249;59.736;30.568;2022-12-11T10:57:33;-4.08;80.48
71128;SHT30;59249;59.736;30.568;2022-12-11T11:00:05;-4.09;80.65
71128;SHT30;59249;59.736;30.568;2022-12-11T11:02:36;-4.13;80.56
71128;SHT30;59249;59.736;30.568;2022-12-11T11:05:16;-4.28;80.80
71128;SHT30;59249;59.736;30.568;2022-12-11T11:08:15;-4.20;81.01
71128;SHT30;59249;59.736;30.568;2022-12-11T11:10:54;-4.22;80.85
71128;SHT30;59249;59.736;30.568;2022-12-11T11:13:26;-4.29;80.84
71128;SHT30;59249;59.736;30.568;2022-12-11T11:16:00;-4.17;80.90
71128;SHT30;59249;59.736;30.568;2022-12-11T11:18:30;-4.07;80.94
71128;SHT30;59249;59.736;30.568;2022-12-11T11:21:01;-4.09;80.77
71128;SHT30;59249;59.736;30.568;2022-12-11T11:23:39;-4.04;80.75
71128;SHT30;59249;59.736;30.568;2022-12-11T11:26:13;-3.99;80.57
71128;SHT30;59249;59.736;30.568;2022-12-11T11:28:49;-3.99;80.45
71128;SHT30;59249;59.736;30.568;2022-12-11T11:31:29;-3.95;80.52
71128;SHT30;59249;59.736;30.568;2022-12-11T11:34:01;-3.98;80.40
71128;SHT30;59249;59.736;30.568;2022-12-11T11:36:34;-3.91;80.38
71128;SHT30;59249;59.736;30.568;2022-12-11T11:39:24;-3.95;80.37
71128;SHT30;59249;59.736;30.568;2022-12-11T11:42:02;-3.96;80.36
71128;SHT30;59249;59.736;30.568;2022-12-11T11:44:37;-3.96;80.44
71128;SHT30;59249;59.736;30.568;2022-12-11T11:47:15;-3.95;80.44
71128;SHT30;59249;59.736;30.568;2022-12-11T11:49:54;-4.01;80.34
71128;SHT30;59249;59.736;30.568;2022-12-11T11:52:33;-4.04;80.34
71128;SHT30;59249;59.736;30.568;2022-12-11T11:55:13;-4.15;80.41
71128;SHT30;59249;59.736;30.568;2022-12-11T11:57:57;-4.13;80.62
71128;SHT30;59249;59.736;30.568;2022-12-11T12:00:29;-4.08;80.74
71128;SHT30;59249;59.736;30.568;2022-12-11T12:03:07;-4.00;80.68
71128;SHT30;59249;59.736;30.568;2022-12-11T12:05:53;-4.05;80.32
71128;SHT30;59249;59.736;30.568;2022-12-11T12:08:50;-4.15;80.51
71128;SHT30;59249;59.736;30.568;2022-12-11T12:11:33;-4.18;80.61
71128;SHT30;59249;59.736;30.568;2022-12-11T12:14:13;-4.24;80.68
71128;SHT30;59249;59.736;30.568;2022-12-11T12:17:21;-4.28;80.62
71128;SHT30;59249;59.736;30.568;2022-12-11T12:20:07;-4.30;80.90
71128;SHT30;59249;59.736;30.568;2022-12-11T12:22:59;-4.26;80.98
71128;SHT30;59249;59.736;30.568;2022-12-11T12:25:38;-4.30;80.73
71128;SHT30;59249;59.736;30.568;2022-12-11T12:28:25;-4.32;80.85
71128;SHT30;59249;59.736;30.568;2022-12-11T12:31:14;-4.33;80.77
71128;SHT30;59249;59.736;30.568;2022-12-11T12:33:56;-4.30;80.74
71128;SHT30;59249;59.736;30.568;2022-12-11T12:36:37;-4.31;80.76
71128;SHT30;59249;59.736;30.568;2022-12-11T12:39:18;-4.32;80.72
71128;SHT30;59249;59.736;30.568;2022-12-11T12:41:56;-4.32;80.88
71128;SHT30;59249;59.736;30.568;2022-12-11T12:44:47;-4.28;80.89
71128;SHT30;59249;59.736;30.568;2022-12-11T12:47:19;-4.32;80.58
71128;SHT30;59249;59.736;30.568;2022-12-11T12:49:50;-4.42;80.67
71128;SHT30;59249;59.736;30.568;2022-12-11T12:52:28;-4.33;80.76
71128;SHT30;59249;59.736;30.568;2022-12-11T12:55:06;-4.30;80.90
71128;SHT30;59249;59.736;30.568;2022-12-11T12:57:52;-4.44;80.76
71128;SHT30;59249;59.736;30.568;2022-12-11T13:00:32;-4.35;80.84
71128;SHT30;59249;59.736;30.568;2022-12-11T13:03:15;-4.41;80.58
71128;SHT30;59249;59.736;30.568;2022-12-11T13:05:57;-4.39;80.88
71128;SHT30;59249;59.736;30.568;2022-12-11T13:08:32;-4.30;80.79
71128;SHT30;59249;59.736;30.568;2022-12-11T13:11:05;-4.32;80.81
71128;SHT30;59249;59.736;30.568;2022-12-11T13:13:38;-4.25;80.82
71128;SHT30;59249;59.736;30.568;2022-12-11T13:16:25;-4.28;80.72
71128;SHT30;59249;59.736;30.568;2022-12-11T13:19:01;-4.30;80.53
71128;SHT30;59249;59.736;30.568;2022-12-11T13:21:32;-4.35;80.43
71128;SHT30;59249;59.736;30.568;2022-12-11T13:24:24;-4.39;80.63
71128;SHT30;59249;59.736;30.568;2022-12-11T13:26:54;-4.32;80.70
71128;SHT30;59249;59.736;30.568;2022-12-11T13:29:32;-4.36;80.61
71128;SHT30;59249;59.736;30.568;2022-12-11T13:32:21;-4.38;80.50
71128;SHT30;59249;59.736;30.568;2022-12-11T13:34:54;-4.35;80.81
71128;SHT30;59249;59.736;30.568;2022-12-11T13:37:29;-4.44;80.60
71128;SHT30;59249;59.736;30.568;2022-12-11T13:40:04;-4.41;80.90
71128;SHT30;59249;59.736;30.568;2022-12-11T13:42:46;-4.34;80.79
71128;SHT30;59249;59.736;30.568;2022-12-11T13:45:22;-4.35;80.74
71128;SHT30;59249;59.736;30.568;2022-12-11T13:47:57;-4.30;80.52
71128;SHT30;59249;59.736;30.568;2022-12-11T13:50:31;-4.26;80.66
71128;SHT30;59249;59.736;30.568;2022-12-11T13:53:02;-4.30;80.48
71128;SHT30;59249;59.736;30.568;2022-12-11T13:55:32;-4.39;80.54
71128;SHT30;59249;59.736;30.568;2022-12-11T13:58:02;-4.39;80.64
71128;SHT30;59249;59.736;30.568;2022-12-11T14:00:31;-4.39;80.74
71128;SHT30;59249;59.736;30.568;2022-12-11T14:03:05;-4.32;80.68
71128;SHT30;59249;59.736;30.568;2022-12-11T14:05:35;-4.34;80.66
71128;SHT30;59249;59.736;30.568;2022-12-11T14:08:07;-4.39;80.60
71128;SHT30;59249;59.736;30.568;2022-12-11T14:10:39;-4.46;80.69
71128;SHT30;59249;59.736;30.568;2022-12-11T14:13:20;-4.46;80.80
71128;SHT30;59249;59.736;30.568;2022-12-11T14:15:50;-4.46;80.76
71128;SHT30;59249;59.736;30.568;2022-12-11T14:18:25;-4.46;80.68
71128;SHT30;59249;59.736;30.568;2022-12-11T14:20:57;-4.52;80.56
71128;SHT30;59249;59.736;30.568;2022-12-11T14:23:29;-4.57;80.60
71128;SHT30;59249;59.736;30.568;2022-12-11T14:26:01;-4.53;80.56
71128;SHT30;59249;59.736;30.568;2022-12-11T14:28:37;-4.46;80.63
71128;SHT30;59249;59.736;30.568;2022-12-11T14:31:15;-4.48;80.41
71128;SHT30;59249;59.736;30.568;2022-12-11T14:33:50;-4.48;80.45
71128;SHT30;59249;59.736;30.568;2022-12-11T14:36:21;-4.43;80.40
71128;SHT30;59249;59.736;30.568;2022-12-11T14:38:56;-4.53;80.41
71128;SHT30;59249;59.736;30.568;2022-12-11T14:41:40;-4.55;80.29
71128;SHT30;59249;59.736;30.568;2022-12-11T14:44:15;-4.58;80.30
71128;SHT30;59249;59.736;30.568;2022-12-11T14:46:47;-4.62;80.38
71128;SHT30;59249;59.736;30.568;2022-12-11T14:49:27;-4.45;80.29
71128;SHT30;59249;59.736;30.568;2022-12-11T14:52:00;-4.52;80.05
71128;SHT30;59249;59.736;30.568;2022-12-11T14:54:34;-4.57;80.23
71128;SHT30;59249;59.736;30.568;2022-12-11T14:57:06;-4.57;80.31
71128;SHT30;59249;59.736;30.568;2022-12-11T14:59:43;-4.65;80.27
71128;SHT30;59249;59.736;30.568;2022-12-11T15:02:27;-4.60;80.05
71128;SHT30;59249;59.736;30.568;2022-12-11T15:05:20;-4.66;80.00
71128;SHT30;59249;59.736;30.568;2022-12-11T15:07:56;-4.65;80.11
71128;SHT30;59249;59.736;30.568;2022-12-11T15:10:34;-4.72;80.18
71128;SHT30;59249;59.736;30.568;2022-12-11T15:13:05;-4.71;80.28
71128;SHT30;59249;59.736;30.568;2022-12-11T15:15:43;-4.69;80.00
71128;SHT30;59249;59.736;30.568;2022-12-11T15:18:22;-4.65;79.92
71128;SHT30;59249;59.736;30.568;2022-12-11T15:20:58;-4.66;80.07
71128;SHT30;59249;59.736;30.568;2022-12-11T15:23:28;-4.72;80.15
71128;SHT30;59249;59.736;30.568;2022-12-11T15:26:00;-4.72;80.35
71128;SHT30;59249;59.736;30.568;2022-12-11T15:28:33;-4.77;80.22
71128;SHT30;59249;59.736;30.568;2022-12-11T15:31:06;-4.68;80.42
71128;SHT30;59249;59.736;30.568;2022-12-11T15:33:45;-4.65;80.42
71128;SHT30;59249;59.736;30.568;2022-12-11T15:36:24;-4.60;80.55
71128;SHT30;59249;59.736;30.568;2022-12-11T15:38:54;-4.61;80.40
71128;SHT30;59249;59.736;30.568;2022-12-11T15:41:24;-4.59;80.52
71128;SHT30;59249;59.736;30.568;2022-12-11T15:43:55;-4.62;80.57
71128;SHT30;59249;59.736;30.568;2022-12-11T15:46:26;-4.57;80.75
71128;SHT30;59249;59.736;30.568;2022-12-11T15:48:56;-4.62;80.56
71128;SHT30;59249;59.736;30.568;2022-12-11T15:51:26;-4.69;80.45
71128;SHT30;59249;59.736;30.568;2022-12-11T15:53:55;-4.73;80.17
71128;SHT30;59249;59.736;30.568;2022-12-11T15:56:24;-4.76;80.60